Time;durP1;ratioP1;P1;durP2;ratioP2;P2;SDS_P1;SDS_P2;PMS_P1;PMS_P2;Temp;Humidity;BMP_temperature;BMP_pressure;BME280_temperature;BME280_humidity;BME280_pressure;Samples;Min_cycle;Max_cycle;Signal;HPM_P1;HPM_P2
2022/12/14 00:00:41;;;;;;;88.20;50.40;;;-4.50;99.90;;;;;;5016490;28;20069;-90
2022/12/14 00:03:12;;;;;;;119.10;66.73;;;-4.50;99.90;;;;;;5031945;28;20095;-90
2022/12/14 00:05:38;;;;;;;94.47;52.27;;;-4.60;99.90;;;;;;5031903;28;20084;-90
2022/12/14 00:08:05;;;;;;;84.37;45.83;;;-4.60;99.90;;;;;;5017842;28;20084;-90
2022/12/14 00:10:31;;;;;;;80.30;44.00;;;-4.60;99.90;;;;;;5032364;28;20499;-90
2022/12/14 00:13:03;;;;;;;81.37;43.37;;;-4.70;99.90;;;;;;4998746;28;20048;-90
2022/12/14 00:15:32;;;;;;;83.90;44.43;;;-4.80;99.90;;;;;;5017045;28;20132;-90
2022/12/14 00:17:58;;;;;;;67.00;39.90;;;-4.80;99.90;;;;;;4991706;28;20938;-90
2022/12/14 00:20:31;;;;;;;77.00;40.70;;;-5.00;99.90;;;;;;5032243;28;20064;-89
2022/12/14 00:22:58;;;;;;;65.37;38.40;;;-5.10;99.90;;;;;;5019560;28;20050;-89
2022/12/14 00:25:27;;;;;;;67.57;37.37;;;-5.10;99.90;;;;;;5029100;28;20493;-89
2022/12/14 00:27:53;;;;;;;65.73;37.10;;;-5.20;99.90;;;;;;5007988;28;20064;-89
2022/12/14 00:30:20;;;;;;;70.60;38.53;;;-5.30;99.90;;;;;;5025350;28;20730;-90
2022/12/14 00:32:46;;;;;;;66.97;37.23;;;-5.30;99.90;;;;;;4999194;28;20042;-90
2022/12/14 00:35:19;;;;;;;65.50;35.73;;;-5.40;99.90;;;;;;5012096;28;20295;-90
2022/12/14 00:37:45;;;;;;;62.03;34.17;;;-5.40;99.90;;;;;;5008516;28;20041;-91
2022/12/14 00:40:11;;;;;;;62.43;35.43;;;-5.50;99.90;;;;;;5014739;28;20303;-90
2022/12/14 00:42:40;;;;;;;62.50;35.70;;;-5.50;99.90;;;;;;5030433;28;20634;-90
2022/12/14 00:45:07;;;;;;;65.47;35.33;;;-5.30;99.90;;;;;;5015273;28;20300;-89
2022/12/14 00:47:34;;;;;;;64.07;34.00;;;-5.70;99.90;;;;;;4992222;28;20044;-89
2022/12/14 00:50:07;;;;;;;65.87;33.27;;;-5.80;99.90;;;;;;5031945;28;20115;-89
2022/12/14 00:52:32;;;;;;;62.57;33.73;;;-5.80;99.90;;;;;;5013838;28;20073;-90
2022/12/14 00:54:58;;;;;;;66.40;34.50;;;-5.80;99.90;;;;;;5014460;28;20561;-90
2022/12/14 00:57:24;;;;;;;61.57;33.97;;;-5.90;99.90;;;;;;4989750;28;20056;-90
2022/12/14 00:59:49;;;;;;;64.70;34.00;;;-5.90;99.90;;;;;;5014781;28;20053;-89
2022/12/14 01:02:19;;;;;;;62.47;33.47;;;-6.00;99.90;;;;;;5030248;28;20543;-90
2022/12/14 01:04:45;;;;;;;66.00;34.30;;;-6.10;99.90;;;;;;5031086;28;20293;-88
2022/12/14 01:07:11;;;;;;;60.00;33.10;;;-6.10;99.90;;;;;;5007563;28;20053;-89
2022/12/14 01:09:36;;;;;;;63.80;34.10;;;-5.30;99.90;;;;;;5009621;28;20050;-89
2022/12/14 01:12:02;;;;;;;63.60;33.70;;;-6.20;99.90;;;;;;4979033;28;20042;-89
2022/12/14 01:14:28;;;;;;;63.33;33.63;;;-6.20;99.90;;;;;;4976798;28;20050;-89
2022/12/14 01:16:55;;;;;;;60.77;33.17;;;-6.30;99.90;;;;;;5005570;28;20049;-89
2022/12/14 01:19:20;;;;;;;70.87;35.90;;;-6.20;99.90;;;;;;5008510;28;20061;-90
2022/12/14 01:21:46;;;;;;;67.20;35.27;;;-6.20;99.90;;;;;;5011377;28;20320;-89
2022/12/14 01:24:13;;;;;;;64.60;33.87;;;-6.20;99.90;;;;;;4993693;28;20053;-89
2022/12/14 01:26:39;;;;;;;62.33;32.73;;;-6.30;99.90;;;;;;4974098;28;20041;-89
2022/12/14 01:29:06;;;;;;;65.00;34.27;;;-5.50;99.90;;;;;;4992260;28;20694;-89
2022/12/14 01:31:37;;;;;;;59.90;32.27;;;-6.30;99.90;;;;;;5042280;28;20049;-90
2022/12/14 01:34:04;;;;;;;65.65;34.05;;;-6.40;99.90;;;;;;5030849;28;20296;-89
2022/12/14 01:36:38;;;;;;;70.50;34.47;;;-6.40;99.90;;;;;;4990836;28;20054;-89
2022/12/14 01:39:12;;;;;;;67.50;35.83;;;-6.40;99.90;;;;;;5008974;28;20352;-89
2022/12/14 01:41:48;;;;;;;63.77;33.40;;;-6.10;99.90;;;;;;5010167;28;20293;-89
2022/12/14 01:44:13;;;;;;;65.67;33.40;;;-6.40;99.90;;;;;;5024671;28;20377;-89
2022/12/14 01:46:45;;;;;;;64.10;33.03;;;-6.50;99.90;;;;;;5022230;28;20460;-89
2022/12/14 01:49:30;;;;;;;64.33;33.70;;;-6.60;99.90;;;;;;4992730;28;20046;-89
2022/12/14 01:52:14;;;;;;;64.63;33.40;;;-6.30;99.90;;;;;;5010900;28;20790;-89
2022/12/14 01:54:46;;;;;;;73.07;35.93;;;-6.60;99.90;;;;;;5009423;28;20289;-90
2022/12/14 01:57:12;;;;;;;63.47;33.80;;;-6.60;99.90;;;;;;4988047;28;20332;-89
2022/12/14 01:59:44;;;;;;;65.43;34.50;;;-6.60;99.90;;;;;;4993970;28;20329;-90
2022/12/14 02:02:11;;;;;;;64.88;34.33;;;-6.60;99.90;;;;;;5009548;28;20120;-89
2022/12/14 02:04:44;;;;;;;69.03;35.40;;;-6.60;99.90;;;;;;5026260;28;20053;-89
2022/12/14 02:07:13;;;;;;;62.40;33.37;;;-6.70;99.90;;;;;;5021558;28;20292;-89
2022/12/14 02:09:50;;;;;;;65.17;33.77;;;-6.70;99.90;;;;;;5029395;28;20391;-89
2022/12/14 02:12:21;;;;;;;63.97;33.97;;;-6.50;99.90;;;;;;4995076;28;20302;-90
2022/12/14 02:14:47;;;;;;;53.10;25.77;;;-6.90;99.90;;;;;;5011898;28;20366;-90
2022/12/14 02:17:15;;;;;;;62.33;32.67;;;-6.90;99.90;;;;;;4991893;28;20045;-89
2022/12/14 02:19:42;;;;;;;66.07;34.83;;;-5.70;99.90;;;;;;5028724;28;20288;-89
2022/12/14 02:22:26;;;;;;;71.70;35.37;;;-6.90;99.90;;;;;;5012715;28;20292;-89
2022/12/14 02:25:25;;;;;;;72.87;35.40;;;-6.80;99.90;;;;;;4997412;28;20363;-90
2022/12/14 02:28:35;;;;;;;67.23;35.30;;;-6.80;99.90;;;;;;5003984;28;20293;-89
2022/12/14 02:31:19;;;;;;;69.13;34.23;;;-6.80;99.90;;;;;;5000781;28;20320;-89
2022/12/14 02:33:55;;;;;;;73.10;35.03;;;-6.80;99.90;;;;;;5010391;28;20366;-90
2022/12/14 02:36:34;;;;;;;64.23;33.53;;;-6.90;99.90;;;;;;5024286;28;20299;-90
2022/12/14 02:39:10;;;;;;;72.03;34.63;;;-7.00;99.90;;;;;;5029996;28;20343;-89
2022/12/14 02:41:56;;;;;;;72.60;35.50;;;-7.00;99.90;;;;;;5050829;28;20284;-90
2022/12/14 02:44:53;;;;;;;73.93;37.30;;;-7.00;99.90;;;;;;5050510;28;20292;-89
2022/12/14 02:47:21;;;;;;;73.70;37.10;;;-6.90;99.90;;;;;;5036188;28;20312;-89
2022/12/14 02:50:01;;;;;;;76.47;37.73;;;-6.80;99.90;;;;;;5030145;28;20322;-89
2022/12/14 02:52:57;;;;;;;76.53;36.67;;;-6.80;99.90;;;;;;5030161;28;20280;-88
2022/12/14 02:55:53;;;;;;;70.17;34.57;;;-6.90;99.90;;;;;;5031809;28;20300;-90
2022/12/14 02:58:31;;;;;;;76.63;36.43;;;-6.90;99.90;;;;;;5022881;28;20655;-89
2022/12/14 03:00:58;;;;;;;67.20;32.67;;;-6.90;99.90;;;;;;5032962;28;20422;-89
2022/12/14 03:03:24;;;;;;;60.03;31.57;;;-7.00;99.90;;;;;;4997268;28;20281;-90
2022/12/14 03:05:58;;;;;;;61.53;32.17;;;-7.00;99.90;;;;;;5044927;28;20287;-91
2022/12/14 03:08:26;;;;;;;61.57;30.50;;;-7.10;99.90;;;;;;5044460;28;20051;-91
2022/12/14 03:10:56;;;;;;;57.37;30.00;;;-7.10;99.90;;;;;;5034300;28;20296;-90
2022/12/14 03:14:17;;;;;;;61.27;30.10;;;-7.20;99.90;;;;;;5033345;28;20286;-89
2022/12/14 03:16:48;;;;;;;62.73;30.63;;;-7.20;99.90;;;;;;4972872;28;20544;-90
2022/12/14 03:19:26;;;;;;;60.83;29.98;;;-7.30;99.90;;;;;;4991974;28;20647;-90
2022/12/14 03:22:06;;;;;;;62.10;30.17;;;-7.30;99.90;;;;;;5017299;28;20053;-89
2022/12/14 03:24:45;;;;;;;59.70;29.73;;;-7.20;99.90;;;;;;5013293;28;20421;-89
2022/12/14 03:27:22;;;;;;;64.33;30.13;;;-7.40;99.90;;;;;;5007888;28;20407;-89
2022/12/14 03:30:03;;;;;;;58.93;29.23;;;-7.40;99.90;;;;;;5013902;28;20293;-90
2022/12/14 03:32:32;;;;;;;47.00;23.45;;;-7.30;99.90;;;;;;5028861;28;20316;-89
2022/12/14 03:35:01;;;;;;;58.13;27.47;;;-7.40;99.90;;;;;;5013551;28;20123;-89
2022/12/14 03:37:34;;;;;;;57.57;29.80;;;-7.50;99.90;;;;;;5021431;28;20304;-90
2022/12/14 03:40:00;;;;;;;59.57;30.13;;;-7.70;99.90;;;;;;5012973;28;20288;-90
2022/12/14 03:42:36;;;;;;;65.30;30.37;;;-7.50;99.90;;;;;;4997885;28;20758;-90
2022/12/14 03:45:20;;;;;;;65.87;32.23;;;-7.40;99.90;;;;;;5012806;28;20313;-90
2022/12/14 03:48:14;;;;;;;63.53;31.20;;;-7.30;99.90;;;;;;5005953;28;20320;-88
2022/12/14 03:50:57;;;;;;;65.40;30.10;;;-7.30;99.90;;;;;;5029684;28;20297;-90
2022/12/14 03:53:47;;;;;;;58.27;29.93;;;-7.30;99.90;;;;;;5005123;28;20308;-90
2022/12/14 03:56:51;;;;;;;57.70;30.17;;;-7.40;99.90;;;;;;4995265;28;20300;-91
2022/12/14 03:59:26;;;;;;;64.13;29.90;;;-7.50;99.90;;;;;;5010949;28;20372;-90
2022/12/14 04:02:07;;;;;;;60.13;29.60;;;-7.40;99.90;;;;;;5012789;28;20392;-90
2022/12/14 04:04:39;;;;;;;60.50;30.37;;;-7.30;99.90;;;;;;5046330;28;20304;-89
2022/12/14 04:07:07;;;;;;;;;;;-7.30;99.90;;;;;;5026221;28;20527;-88
2022/12/14 04:09:58;;;;;;;59.07;29.27;;;-7.40;99.90;;;;;;5019366;28;19952;-89
2022/12/14 04:21:18;;;;;;;64.93;29.73;;;-7.40;99.90;;;;;;5032068;28;20288;-90
2022/12/14 04:26:54;;;;;;;59.55;30.50;;;-7.50;99.90;;;;;;5008093;28;20356;-90
2022/12/14 04:32:37;;;;;;;60.00;29.47;;;-7.40;99.90;;;;;;5031032;28;20292;-88
2022/12/14 04:35:09;;;;;;;65.43;29.80;;;-7.30;99.90;;;;;;5031630;28;20293;-90
2022/12/14 04:37:38;;;;;;;59.10;30.10;;;-7.40;99.90;;;;;;5008823;28;20300;-89
2022/12/14 04:40:06;;;;;;;63.23;29.17;;;-7.50;99.90;;;;;;5031113;28;20719;-90
2022/12/14 04:42:45;;;;;;;60.60;30.93;;;-7.40;99.90;;;;;;5014099;28;20288;-90
2022/12/14 04:45:20;;;;;;;62.70;31.73;;;-7.30;99.90;;;;;;4979994;28;20293;-89
2022/12/14 04:48:05;;;;;;;56.10;28.97;;;-6.50;99.90;;;;;;5020240;28;20301;-90
2022/12/14 04:50:38;;;;;;;60.30;29.50;;;-7.40;99.90;;;;;;4994929;28;20296;-90
2022/12/14 04:53:16;;;;;;;60.27;29.60;;;-7.40;99.90;;;;;;4994267;28;20280;-90
2022/12/14 04:55:52;;;;;;;56.03;28.43;;;-7.40;99.90;;;;;;5012487;28;20787;-90
2022/12/14 04:58:25;;;;;;;54.53;28.00;;;-7.50;99.90;;;;;;4986931;28;20376;-89
2022/12/14 05:01:13;;;;;;;56.27;28.57;;;-7.60;99.90;;;;;;4994400;28;20305;-89
2022/12/14 05:04:14;;;;;;;60.17;28.20;;;-7.60;99.90;;;;;;4993200;28;20297;-90
2022/12/14 05:07:04;;;;;;;65.10;29.27;;;-7.60;99.90;;;;;;5007329;28;20857;-90
2022/12/14 05:09:45;;;;;;;65.87;31.10;;;-7.50;99.90;;;;;;5027537;28;20296;-90
2022/12/14 05:12:20;;;;;;;59.00;28.60;;;-7.50;99.90;;;;;;5029413;28;20343;-90
2022/12/14 05:14:53;;;;;;;65.90;32.07;;;-7.50;99.90;;;;;;5013574;28;20115;-90
2022/12/14 05:17:18;;;;;;;57.63;29.77;;;-7.60;99.90;;;;;;5004495;28;20782;-90
2022/12/14 05:19:50;;;;;;;59.03;29.87;;;-7.70;99.90;;;;;;5024616;28;20306;-90
2022/12/14 05:22:16;;;;;;;;;;;-7.70;99.90;;;;;;5032963;28;20474;-88
2022/12/14 05:24:45;;;;;;;63.20;28.80;;;-7.80;99.90;;;;;;5051711;28;20457;-88
2022/12/14 05:27:11;;;;;;;65.50;31.53;;;-7.80;99.90;;;;;;5042197;28;20363;-89
2022/12/14 05:29:37;;;;;;;63.97;30.27;;;-7.20;99.90;;;;;;5032924;28;20116;-89
2022/12/14 05:32:03;;;;;;;69.83;31.47;;;-7.20;99.90;;;;;;5032394;28;20335;-89
2022/12/14 05:34:29;;;;;;;66.63;30.40;;;-6.90;99.90;;;;;;5033479;28;20708;-88
2022/12/14 05:36:55;;;;;;;71.20;32.53;;;-7.80;99.90;;;;;;5010989;28;20064;-89
2022/12/14 05:39:21;;;;;;;66.00;32.60;;;-7.80;99.90;;;;;;5033082;28;20665;-89
2022/12/14 05:41:47;;;;;;;67.10;30.80;;;-7.80;99.90;;;;;;5016864;28;20056;-89
2022/12/14 05:44:14;;;;;;;71.57;32.97;;;-7.70;99.90;;;;;;5015933;28;20287;-89
2022/12/14 05:46:40;;;;;;;67.47;31.80;;;-7.70;99.90;;;;;;5012061;28;20072;-89
2022/12/14 05:49:05;;;;;;;63.83;30.43;;;-7.70;99.90;;;;;;5031307;28;20322;-88
2022/12/14 05:51:31;;;;;;;63.27;31.23;;;-7.70;99.90;;;;;;5049275;28;20055;-88
2022/12/14 05:53:58;;;;;;;71.73;31.50;;;-7.70;99.90;;;;;;5028629;28;20470;-88
2022/12/14 05:56:24;;;;;;;63.47;30.13;;;-7.70;99.90;;;;;;5028121;28;20114;-89
2022/12/14 05:58:50;;;;;;;63.43;30.47;;;-7.70;99.90;;;;;;5011056;28;20300;-88
2022/12/14 06:01:16;;;;;;;61.87;30.37;;;-7.70;99.90;;;;;;5030583;28;20048;-90
2022/12/14 06:03:42;;;;;;;61.53;30.53;;;-7.80;99.90;;;;;;5040656;28;20283;-89
2022/12/14 06:06:11;;;;;;;63.33;30.57;;;-7.70;99.90;;;;;;5032904;28;20774;-90
2022/12/14 06:08:39;;;;;;;65.37;30.57;;;-7.70;99.90;;;;;;5043150;28;20414;-89
2022/12/14 06:11:12;;;;;;;63.00;30.67;;;-7.70;99.90;;;;;;5049332;28;20348;-89
2022/12/14 06:13:39;;;;;;;64.77;29.80;;;-7.70;99.90;;;;;;5031720;28;20840;-89
2022/12/14 06:16:13;;;;;;;68.70;31.77;;;-7.80;99.90;;;;;;5032440;28;20329;-90
2022/12/14 06:18:45;;;;;;;69.27;32.17;;;-7.70;99.90;;;;;;5027374;28;20387;-87
2022/12/14 06:21:14;;;;;;;62.63;30.33;;;-7.70;99.90;;;;;;5049095;28;20292;-89
2022/12/14 06:23:40;;;;;;;64.23;30.23;;;-7.80;99.90;;;;;;5015312;28;20751;-88
2022/12/14 06:26:15;;;;;;;65.27;31.00;;;-7.70;99.90;;;;;;5049731;28;20352;-89
2022/12/14 06:28:41;;;;;;;61.93;30.87;;;-7.70;99.90;;;;;;5026702;28;20386;-89
2022/12/14 06:31:12;;;;;;;60.50;28.77;;;-7.70;99.90;;;;;;5049472;28;20359;-89
2022/12/14 06:33:37;;;;;;;60.50;29.58;;;-6.90;99.90;;;;;;5031955;28;20045;-89
2022/12/14 06:36:03;;;;;;;64.50;30.30;;;-6.90;99.90;;;;;;5033409;28;20475;-89
2022/12/14 06:38:29;;;;;;;66.03;30.63;;;-7.70;99.90;;;;;;5027612;28;20045;-88
2022/12/14 06:40:55;;;;;;;70.07;32.87;;;-7.70;99.90;;;;;;5016480;28;20291;-89
2022/12/14 06:43:24;;;;;;;71.37;33.10;;;-7.60;99.90;;;;;;5015554;28;20499;-89
2022/12/14 06:45:55;;;;;;;69.73;32.23;;;-7.60;99.90;;;;;;5018467;28;20574;-89
2022/12/14 06:48:21;;;;;;;70.43;31.47;;;-7.60;99.90;;;;;;5040255;28;20288;-89
2022/12/14 06:50:48;;;;;;;68.90;31.73;;;-7.70;99.90;;;;;;5032118;28;20041;-89
2022/12/14 06:53:14;;;;;;;65.17;30.77;;;-7.60;99.90;;;;;;5046963;28;20538;-89
2022/12/14 06:55:40;;;;;;;67.97;31.93;;;-7.60;99.90;;;;;;5033013;28;20288;-91
2022/12/14 06:58:09;;;;;;;67.13;31.10;;;-7.60;99.90;;;;;;5025292;28;20657;-92
2022/12/14 07:00:35;;;;;;;64.03;29.93;;;-7.70;99.90;;;;;;5033403;28;20057;-91
2022/12/14 07:03:00;;;;;;;71.27;33.03;;;-7.80;99.90;;;;;;5008176;28;20310;-89
2022/12/14 07:05:26;;;;;;;78.27;36.93;;;-7.80;99.90;;;;;;5049437;28;20056;-90
2022/12/14 07:07:51;;;;;;;78.03;37.40;;;-7.70;99.90;;;;;;5048133;28;20145;-89
2022/12/14 07:10:17;;;;;;;71.43;34.53;;;-7.70;99.90;;;;;;5053127;28;20053;-91
2022/12/14 07:12:43;;;;;;;67.20;33.40;;;-7.60;99.90;;;;;;5058656;28;20053;-89
2022/12/14 07:15:09;;;;;;;69.50;32.80;;;-7.60;99.90;;;;;;5036022;28;20037;-89
2022/12/14 07:17:36;;;;;;;71.30;34.80;;;-7.70;99.90;;;;;;5019553;28;20120;-89
2022/12/14 07:20:03;;;;;;;68.87;33.70;;;-9.10;99.90;;;;;;5057011;28;20381;-90
2022/12/14 07:22:29;;;;;;;65.17;31.90;;;-7.80;99.90;;;;;;5060348;28;20291;-87
2022/12/14 07:24:54;;;;;;;67.27;32.67;;;-7.70;99.90;;;;;;5009605;28;20290;-90
2022/12/14 07:27:20;;;;;;;65.43;33.40;;;-7.80;99.90;;;;;;5037647;28;20052;-90
2022/12/14 07:29:48;;;;;;;63.70;31.43;;;-7.60;99.90;;;;;;5040573;28;20080;-90
2022/12/14 07:32:15;;;;;;;61.83;30.63;;;-7.60;99.90;;;;;;5031810;28;20041;-88
2022/12/14 07:34:41;;;;;;;65.37;31.13;;;-7.80;99.90;;;;;;5054108;28;20287;-88
2022/12/14 07:37:07;;;;;;;65.87;31.27;;;-7.70;99.90;;;;;;5037973;28;20279;-87
2022/12/14 07:39:32;;;;;;;63.47;30.73;;;-7.80;99.90;;;;;;5066796;28;20102;-89
2022/12/14 07:41:58;;;;;;;62.87;30.53;;;-7.90;99.90;;;;;;5030470;28;20049;-90
2022/12/14 07:44:24;;;;;;;67.07;30.33;;;-7.90;99.90;;;;;;5018029;28;20155;-88
2022/12/14 07:46:49;;;;;;;62.53;29.40;;;-7.90;99.90;;;;;;5046658;28;20033;-88
2022/12/14 07:49:16;;;;;;;63.27;28.30;;;-7.90;99.90;;;;;;5033999;28;20662;-89
2022/12/14 07:51:43;;;;;;;57.10;29.03;;;-7.90;99.90;;;;;;5013116;28;20425;-87
2022/12/14 07:54:10;;;;;;;56.07;27.80;;;-7.90;99.90;;;;;;4998234;28;20322;-89
2022/12/14 07:56:48;;;;;;;57.90;27.03;;;-7.90;99.90;;;;;;5021065;28;20294;-88
2022/12/14 07:59:15;;;;;;;56.13;27.47;;;-8.00;99.90;;;;;;5024404;28;20342;-89
2022/12/14 08:01:42;;;;;;;56.73;28.87;;;-8.00;99.90;;;;;;5038708;28;20306;-89
2022/12/14 08:04:19;;;;;;;59.67;29.30;;;-7.90;99.90;;;;;;5038998;28;20752;-90
2022/12/14 08:06:46;;;;;;;59.43;29.57;;;-7.90;99.90;;;;;;5004147;28;20315;-90
2022/12/14 08:09:14;;;;;;;62.87;29.97;;;-7.90;99.90;;;;;;5038573;28;20327;-89
2022/12/14 08:11:40;;;;;;;63.80;30.50;;;-7.90;99.90;;;;;;5024754;28;20307;-89
2022/12/14 08:14:10;;;;;;;59.87;30.33;;;-7.80;99.90;;;;;;5024538;28;20298;-88
2022/12/14 08:16:36;;;;;;;69.23;31.67;;;-7.70;99.90;;;;;;5020863;28;20105;-90
2022/12/14 08:19:02;;;;;;;79.90;37.77;;;-6.40;99.90;;;;;;5020264;28;20315;-88
2022/12/14 08:21:29;;;;;;;72.20;36.10;;;-7.40;99.90;;;;;;5041853;28;20053;-89
2022/12/14 08:23:56;;;;;;;82.97;36.77;;;-7.30;99.90;;;;;;5006839;28;20064;-88
2022/12/14 08:26:25;;;;;;;72.07;34.33;;;-7.30;99.90;;;;;;5038408;28;20799;-90
2022/12/14 08:28:55;;;;;;;76.47;34.00;;;-6.30;99.90;;;;;;5033847;28;20291;-89
2022/12/14 08:31:29;;;;;;;76.77;35.20;;;-7.20;99.90;;;;;;5044656;28;20280;-89
2022/12/14 08:33:59;;;;;;;72.80;33.80;;;-7.00;99.90;;;;;;5028006;28;20874;-88
2022/12/14 08:36:32;;;;;;;72.50;33.93;;;-7.00;99.90;;;;;;5006626;28;20353;-89
2022/12/14 08:39:05;;;;;;;74.43;35.90;;;-7.20;99.90;;;;;;5027216;28;20351;-88
2022/12/14 08:41:33;;;;;;;93.70;39.67;;;-6.70;99.90;;;;;;5049874;28;20978;-89
2022/12/14 08:44:05;;;;;;;101.90;45.73;;;-6.20;99.90;;;;;;5031010;28;20318;-89
2022/12/14 08:46:33;;;;;;;103.03;48.33;;;-5.50;99.90;;;;;;5023446;28;20299;-89
2022/12/14 08:49:02;;;;;;;95.53;45.47;;;-5.00;99.90;;;;;;5041514;28;20320;-89
2022/12/14 08:51:30;;;;;;;84.83;44.87;;;-4.90;99.90;;;;;;5049737;28;20731;-91
2022/12/14 08:53:57;;;;;;;80.73;40.37;;;-4.10;99.90;;;;;;5041153;28;20291;-89
2022/12/14 08:56:24;;;;;;;75.67;37.13;;;-5.10;99.90;;;;;;5059494;28;20294;-90
2022/12/14 08:58:50;;;;;;;72.33;38.07;;;-5.20;99.90;;;;;;5041760;28;20307;-89
2022/12/14 09:01:25;;;;;;;70.17;36.57;;;-4.90;99.90;;;;;;5013492;28;20784;-88
2022/12/14 09:03:51;;;;;;;78.17;36.80;;;-5.40;99.90;;;;;;5041713;28;20420;-89
2022/12/14 09:06:21;;;;;;;68.10;33.73;;;-5.40;99.90;;;;;;5028453;28;20303;-89
2022/12/14 09:08:50;;;;;;;54.17;24.30;;;-5.40;99.90;;;;;;5043565;28;20049;-89
2022/12/14 09:11:19;;;;;;;62.67;31.83;;;-5.50;99.90;;;;;;5033451;28;20063;-90
2022/12/14 09:13:46;;;;;;;67.03;32.87;;;-4.30;99.90;;;;;;5010302;28;20326;-92
2022/12/14 09:16:17;;;;;;;62.77;30.80;;;-5.50;99.90;;;;;;5006019;28;20342;-89
2022/12/14 09:18:43;;;;;;;;;;;-5.50;99.90;;;;;;5012438;28;20310;-90
2022/12/14 09:21:11;;;;;;;61.20;28.30;;;-5.50;99.90;;;;;;5040707;28;19948;-91
2022/12/14 09:23:40;;;;;;;49.42;24.90;;;-4.00;99.90;;;;;;5060215;28;20298;-90
2022/12/14 09:26:15;;;;;;;63.10;32.57;;;-5.40;99.90;;;;;;5042364;28;20075;-90
2022/12/14 09:28:45;;;;;;;68.63;35.47;;;-5.30;99.90;;;;;;5041582;28;20282;-90
2022/12/14 09:31:25;;;;;;;71.43;34.77;;;-5.20;99.90;;;;;;5030223;28;20379;-89
2022/12/14 09:33:51;;;;;;;75.23;37.33;;;-4.00;99.90;;;;;;5036362;28;20279;-90
2022/12/14 09:36:21;;;;;;;70.77;37.77;;;-4.40;99.90;;;;;;5028882;28;20418;-91
2022/12/14 09:38:48;;;;;;;76.47;38.60;;;-4.90;99.90;;;;;;5042975;28;20315;-90
2022/12/14 09:41:26;;;;;;;69.50;36.57;;;-4.60;99.90;;;;;;5027870;28;20303;-90
2022/12/14 09:44:15;;;;;;;70.23;35.57;;;-4.50;99.90;;;;;;5029452;28;20811;-91
2022/12/14 09:47:05;;;;;;;68.07;34.60;;;-4.30;99.90;;;;;;5023930;28;20306;-91
2022/12/14 09:49:40;;;;;;;72.40;34.63;;;-4.30;99.90;;;;;;5028203;28;20311;-91
2022/12/14 09:52:14;;;;;;;62.73;32.70;;;-4.20;99.90;;;;;;5011382;28;20287;-91
2022/12/14 09:54:43;;;;;;;63.77;31.77;;;-4.30;99.90;;;;;;5013168;28;20295;-91
2022/12/14 09:57:52;;;;;;;66.47;33.77;;;-3.80;99.90;;;;;;5016310;28;20375;-91
2022/12/14 10:00:19;;;;;;;76.37;42.40;;;-3.50;99.90;;;;;;4976188;28;20311;-89
2022/12/14 10:03:09;;;;;;;61.33;32.70;;;-3.40;99.90;;;;;;5019831;28;20348;-90
2022/12/14 10:06:17;;;;;;;60.87;32.13;;;-3.30;99.90;;;;;;5047197;28;20131;-89
2022/12/14 10:08:48;;;;;;;65.37;35.30;;;-3.20;99.90;;;;;;5028542;28;20096;-90
2022/12/14 10:11:44;;;;;;;63.27;34.07;;;-2.50;99.90;;;;;;5040456;28;20287;-89
2022/12/14 10:14:13;;;;;;;56.90;31.70;;;-1.50;99.90;;;;;;5040934;28;20056;-89
2022/12/14 10:17:05;;;;;;;54.13;31.47;;;-0.80;99.90;;;;;;5036656;28;20110;-90
2022/12/14 10:19:41;;;;;;;53.53;32.03;;;-0.50;99.90;;;;;;5019613;28;20094;-91
2022/12/14 10:22:12;;;;;;;55.60;30.00;;;-0.50;99.90;;;;;;5021658;28;20107;-91
2022/12/14 10:24:43;;;;;;;44.75;22.83;;;0.60;99.90;;;;;;5025050;28;20482;-92
2022/12/14 10:27:15;;;;;;;;;;;0.70;99.90;;;;;;5021632;28;20061;-91
2022/12/14 10:29:59;;;;;;;48.83;29.00;;;-0.10;99.90;;;;;;5042474;28;19955;-92
2022/12/14 10:32:31;;;;;;;47.90;28.43;;;-0.20;99.90;;;;;;5021125;28;20049;-92
2022/12/14 10:35:17;;;;;;;49.80;28.07;;;-0.60;99.90;;;;;;5039701;28;20048;-91
2022/12/14 10:37:46;;;;;;;45.03;26.37;;;-0.70;99.90;;;;;;5020986;28;20049;-92
2022/12/14 10:40:30;;;;;;;49.00;27.97;;;-0.80;99.90;;;;;;5024677;28;20056;-91
2022/12/14 10:43:20;;;;;;;45.17;26.10;;;-0.50;99.90;;;;;;5022639;28;20059;-90
2022/12/14 10:46:15;;;;;;;47.00;25.83;;;-0.60;99.90;;;;;;5038084;28;20087;-92
2022/12/14 10:49:15;;;;;;;44.73;24.77;;;-1.10;99.90;;;;;;5029223;28;20055;-93
2022/12/14 10:51:45;;;;;;;35.83;20.58;;;-0.70;99.90;;;;;;5031445;28;20056;-91
2022/12/14 10:54:30;;;;;;;41.95;24.38;;;0.10;99.90;;;;;;5044703;28;20052;-91
2022/12/14 10:56:56;;;;;;;41.63;24.60;;;1.40;99.90;;;;;;5025395;28;20061;-92
2022/12/14 10:59:24;;;;;;;41.17;23.97;;;1.90;99.90;;;;;;5012044;28;20064;-91
2022/12/14 11:02:08;;;;;;;35.77;22.00;;;1.80;99.90;;;;;;5030200;28;21013;-92
2022/12/14 11:04:59;;;;;;;40.27;24.60;;;0.40;99.90;;;;;;5045275;28;20072;-92
2022/12/14 11:07:33;;;;;;;42.77;24.67;;;1.00;99.90;;;;;;5008185;28;20119;-92
2022/12/14 11:10:38;;;;;;;41.67;25.30;;;1.80;99.90;;;;;;5030317;28;20064;-92
2022/12/14 11:13:05;;;;;;;38.20;24.23;;;2.40;99.90;;;;;;4936624;28;20140;-93
2022/12/14 11:15:51;;;;;;;38.13;22.93;;;3.10;99.90;;;;;;5033377;28;20080;-93
2022/12/14 11:18:23;;;;;;;37.33;23.50;;;3.10;99.90;;;;;;5023575;28;20065;-92
2022/12/14 11:20:52;;;;;;;43.33;25.17;;;2.30;99.90;;;;;;5025800;28;20111;-93
2022/12/14 11:23:38;;;;;;;35.70;23.27;;;2.40;99.90;;;;;;5044580;28;20053;-93
2022/12/14 11:26:32;;;;;;;37.33;23.03;;;3.20;99.90;;;;;;5030836;28;20060;-94
2022/12/14 11:29:00;;;;;;;41.07;24.57;;;3.40;99.90;;;;;;5026290;28;20056;-92
2022/12/14 11:31:41;;;;;;;41.70;26.00;;;3.60;99.90;;;;;;5029853;28;20059;-91
2022/12/14 11:34:37;;;;;;;38.07;24.40;;;3.20;99.90;;;;;;5042929;28;20052;-91
2022/12/14 11:37:20;;;;;;;37.03;22.90;;;3.60;99.90;;;;;;5037117;28;20051;-90
2022/12/14 11:39:52;;;;;;;39.37;24.70;;;3.40;99.90;;;;;;5045760;28;20110;-91
2022/12/14 11:42:34;;;;;;;38.97;23.73;;;3.00;99.90;;;;;;5033339;28;20111;-92
2022/12/14 11:45:23;;;;;;;39.70;25.23;;;2.60;99.90;;;;;;5021589;28;20122;-92
2022/12/14 11:48:09;;;;;;;37.13;23.10;;;2.30;99.90;;;;;;5022172;28;20069;-92
2022/12/14 11:50:35;;;;;;;36.63;23.90;;;2.20;99.90;;;;;;5025843;28;20055;-91
2022/12/14 11:53:09;;;;;;;38.53;23.37;;;1.60;99.90;;;;;;5010250;28;20053;-91
2022/12/14 11:55:47;;;;;;;38.97;23.63;;;1.20;99.90;;;;;;5046833;28;20152;-91
2022/12/14 11:58:24;;;;;;;35.30;22.40;;;0.80;99.90;;;;;;5006130;28;20049;-92
2022/12/14 12:00:57;;;;;;;37.10;22.00;;;0.20;99.90;;;;;;5045763;28;20053;-92
2022/12/14 12:03:26;;;;;;;37.53;22.93;;;0.00;99.90;;;;;;5042455;28;20061;-92
2022/12/14 12:06:02;;;;;;;38.40;23.70;;;-0.10;99.90;;;;;;5031532;28;20040;-91
2022/12/14 12:08:32;;;;;;;36.10;22.00;;;-0.30;99.90;;;;;;5030175;28;20517;-91
2022/12/14 12:11:04;;;;;;;31.00;18.93;;;-0.30;99.90;;;;;;5043396;28;20052;-91
2022/12/14 12:13:38;;;;;;;33.73;19.73;;;-0.40;99.90;;;;;;5011895;28;20115;-92
2022/12/14 12:16:15;;;;;;;34.20;20.00;;;-0.20;99.90;;;;;;5024869;28;20057;-92
2022/12/14 12:19:19;;;;;;;33.30;19.73;;;0.10;99.90;;;;;;5021335;28;20067;-92
2022/12/14 12:21:46;;;;;;;37.53;20.97;;;0.10;99.90;;;;;;5027332;28;20057;-92
2022/12/14 12:24:23;;;;;;;31.30;19.70;;;0.40;99.90;;;;;;5026322;28;20053;-92
2022/12/14 12:26:59;;;;;;;33.57;20.30;;;0.50;99.90;;;;;;5025155;28;20053;-91
2022/12/14 12:29:52;;;;;;;30.17;18.13;;;0.90;99.90;;;;;;5042897;28;20048;-92
2022/12/14 12:32:44;;;;;;;29.07;18.30;;;1.20;99.90;;;;;;5030073;28;20071;-91
2022/12/14 12:35:24;;;;;;;28.67;17.33;;;1.90;99.90;;;;;;5049182;28;20060;-89
2022/12/14 12:38:05;;;;;;;27.27;17.23;;;1.00;99.90;;;;;;5044209;28;20163;-91
2022/12/14 12:40:48;;;;;;;21.85;13.40;;;0.80;99.90;;;;;;5016657;28;20055;-91
2022/12/14 12:43:39;;;;;;;32.87;17.63;;;0.80;99.90;;;;;;5038267;28;20056;-91
2022/12/14 12:46:34;;;;;;;31.23;18.03;;;0.90;99.90;;;;;;5029647;28;20053;-91
2022/12/14 12:49:03;;;;;;;33.00;18.50;;;1.10;99.90;;;;;;5009739;28;20388;-89
2022/12/14 12:51:50;;;;;;;29.07;17.93;;;1.90;99.90;;;;;;5047048;28;20798;-90
2022/12/14 12:54:31;;;;;;;33.53;19.47;;;1.30;99.90;;;;;;5043965;28;20045;-89
2022/12/14 12:56:59;;;;;;;28.93;17.40;;;1.60;99.90;;;;;;5040955;28;20048;-90
2022/12/14 12:59:41;;;;;;;28.23;17.57;;;1.60;99.90;;;;;;5027270;28;20048;-90
2022/12/14 13:02:25;;;;;;;29.93;18.20;;;1.40;99.90;;;;;;5025584;28;20053;-90
2022/12/14 13:04:52;;;;;;;30.67;17.90;;;1.30;99.90;;;;;;5028764;28;20071;-89
2022/12/14 13:07:39;;;;;;;29.73;17.07;;;1.40;99.90;;;;;;5024232;28;20080;-92
2022/12/14 13:10:31;;;;;;;29.47;17.63;;;0.70;99.90;;;;;;5025831;28;20188;-89
2022/12/14 13:13:42;;;;;;;29.00;16.80;;;0.50;99.90;;;;;;5034535;28;20091;-91
2022/12/14 13:16:48;;;;;;;28.37;17.03;;;0.30;99.90;;;;;;5047920;28;20055;-91
2022/12/14 13:20:05;;;;;;;26.10;15.43;;;-0.20;99.90;;;;;;4964950;28;20178;-91